Congonhas, Brazil
Current Conditions -  °F | °C
As of 6:00 PM on Sunday 23 Nov 2014 (Local Time) from SBPR Reporting Station
Light Rain Light Rain  
Wind Chill: 70°   Ceiling: 8000
Heat Index: 70°   Visibility: 6mi
Dew Point: 68°   Wind: 8mph
Humidity: 94%   Direction: 130°SE
Pressure: 30"   Gusts: NA
Location:  20.5°S, 43.86°W
Report Text: SBPR 232000Z 13007KT 9999 -RA FEW008 SCT020 BKN080 21/20 Q1016
Loading
Personal Weather Stations






























Interactive Weather Map New forecast layout! Learn more

10-Day Weather Forecast

Advertisements
Track Severe Weather on mobile